createdAt,value
2022-10-23T00:02:09.642Z,6.10
2022-10-23T00:04:38.851Z,6.70
2022-10-23T00:07:07.931Z,6.90
2022-10-23T00:09:37.339Z,6.20
2022-10-23T00:12:07.079Z,7.20
2022-10-23T00:14:36.475Z,7.60
2022-10-23T00:17:06.061Z,6.80
2022-10-23T00:19:35.539Z,6.80
2022-10-23T00:22:04.967Z,7.10
2022-10-23T00:24:34.465Z,6.80
2022-10-23T00:27:06.480Z,7.80
2022-10-23T00:29:35.709Z,6.80
2022-10-23T00:32:05.228Z,6.70
2022-10-23T00:34:34.622Z,7.50
2022-10-23T00:37:04.102Z,7.80
2022-10-23T00:39:33.442Z,8.70
2022-10-23T00:42:03.152Z,9.30
2022-10-23T00:44:32.809Z,8.40
2022-10-23T00:47:02.669Z,8.10
2022-10-23T00:49:33.583Z,6.10
2022-10-23T00:52:09.435Z,7.30
2022-10-23T00:54:46.417Z,7.90
2022-10-23T00:57:17.819Z,8.20
2022-10-23T00:59:47.631Z,9.10
2022-10-23T01:02:17.440Z,11.30
2022-10-23T01:04:46.867Z,11.20
2022-10-23T01:07:35.135Z,10.40
2022-10-23T01:10:39.373Z,9.60
2022-10-23T01:13:18.582Z,11.40
2022-10-23T01:16:18.186Z,9.50
2022-10-23T01:19:07.498Z,10.90
2022-10-23T01:22:14.763Z,9.40
2022-10-23T01:25:06.758Z,9.90
2022-10-23T01:27:46.937Z,10.60
2022-10-23T01:30:19.024Z,12.80
2022-10-23T01:32:56.262Z,10.50
2022-10-23T01:35:34.295Z,10.20
2022-10-23T01:38:18.709Z,11.20
2022-10-23T01:41:06.336Z,11.00
2022-10-23T01:43:51.038Z,12.90
2022-10-23T01:46:21.231Z,14.80
2022-10-23T01:48:55.768Z,13.70
2022-10-23T01:51:29.514Z,13.80
2022-10-23T01:54:02.409Z,13.00
2022-10-23T01:56:36.367Z,13.40
2022-10-23T01:59:13.196Z,14.50
2022-10-23T02:01:48.359Z,18.10
2022-10-23T02:04:29.374Z,16.80
2022-10-23T02:06:59.661Z,15.00
2022-10-23T02:09:29.510Z,15.30
2022-10-23T02:12:22.965Z,15.60
2022-10-23T02:15:10.690Z,16.30
2022-10-23T02:18:03.431Z,14.40
2022-10-23T02:20:56.005Z,15.40
2022-10-23T02:23:35.622Z,13.40
2022-10-23T02:26:04.765Z,13.60
2022-10-23T02:28:44.956Z,14.20
2022-10-23T02:31:18.714Z,17.50
2022-10-23T02:33:49.712Z,18.00
2022-10-23T02:36:21.318Z,17.30
2022-10-23T02:38:50.851Z,15.90
2022-10-23T02:41:39.804Z,16.00
2022-10-23T02:44:41.044Z,16.80
2022-10-23T02:47:36.203Z,17.20
2022-10-23T02:50:55.957Z,17.00
2022-10-23T02:53:47.523Z,17.50
2022-10-23T02:56:41.225Z,15.20
2022-10-23T02:59:22.701Z,14.10
2022-10-23T03:02:04.476Z,15.70
2022-10-23T03:04:34.961Z,15.00
2022-10-23T03:07:04.444Z,18.40
2022-10-23T03:09:33.704Z,16.60
2022-10-23T03:12:03.020Z,16.80
2022-10-23T03:14:32.337Z,17.10
2022-10-23T03:17:01.619Z,17.50
2022-10-23T03:19:30.828Z,18.30
2022-10-23T03:22:00.100Z,16.90
2022-10-23T03:24:29.418Z,13.80
2022-10-23T03:26:58.704Z,15.50
2022-10-23T03:29:28.391Z,15.70
2022-10-23T03:31:57.541Z,13.80
2022-10-23T03:34:26.844Z,16.10
2022-10-23T03:36:56.285Z,16.10
2022-10-23T03:39:25.600Z,17.20
2022-10-23T03:41:55.270Z,16.50
2022-10-23T03:44:24.310Z,18.00
2022-10-23T03:46:53.744Z,16.50
2022-10-23T03:49:22.985Z,16.90
2022-10-23T03:51:53.836Z,16.10
2022-10-23T03:54:29.230Z,16.70
2022-10-23T03:56:59.186Z,18.10
2022-10-23T03:59:29.510Z,17.10
2022-10-23T04:01:58.817Z,17.10
2022-10-23T04:04:28.119Z,15.10
2022-10-23T04:06:57.126Z,16.00
2022-10-23T04:09:26.523Z,15.30
2022-10-23T04:11:58.347Z,15.20
2022-10-23T04:14:28.347Z,14.70
2022-10-23T04:16:57.802Z,14.70
2022-10-23T04:19:27.424Z,13.60
2022-10-23T04:21:58.153Z,12.60
2022-10-23T04:24:28.318Z,13.10
2022-10-23T04:26:57.460Z,17.10
2022-10-23T04:29:32.596Z,14.60
2022-10-23T04:32:01.872Z,14.20
2022-10-23T04:34:31.052Z,17.10
2022-10-23T04:37:00.344Z,15.30
2022-10-23T04:39:29.707Z,14.40
2022-10-23T04:41:59.054Z,12.50
2022-10-23T04:44:28.377Z,13.70
2022-10-23T04:46:58.180Z,12.90
2022-10-23T04:49:27.518Z,13.00
2022-10-23T04:51:56.650Z,12.20
2022-10-23T04:54:25.935Z,11.70
2022-10-23T04:56:55.259Z,12.40
2022-10-23T04:59:24.414Z,10.40
2022-10-23T05:01:53.594Z,10.50
2022-10-23T05:04:23.071Z,9.90
2022-10-23T05:06:52.400Z,9.60
2022-10-23T05:09:21.371Z,11.10
2022-10-23T05:11:50.921Z,11.50
2022-10-23T05:14:22.692Z,11.20
2022-10-23T05:17:09.390Z,11.70
2022-10-23T05:19:47.596Z,10.80
2022-10-23T05:22:19.645Z,12.30
2022-10-23T05:24:50.600Z,11.20
2022-10-23T05:27:20.187Z,13.20
2022-10-23T05:29:52.221Z,12.10
2022-10-23T05:32:22.962Z,12.90
2022-10-23T05:34:52.604Z,12.30
2022-10-23T05:37:22.438Z,13.30
2022-10-23T05:39:51.744Z,14.50
2022-10-23T05:42:23.591Z,12.90
2022-10-23T05:44:52.782Z,14.50
2022-10-23T05:47:22.099Z,11.80
2022-10-23T05:49:51.638Z,11.50
2022-10-23T05:52:21.351Z,12.50
2022-10-23T05:54:55.119Z,11.50
2022-10-23T05:57:24.602Z,12.50
2022-10-23T05:59:54.094Z,11.90
2022-10-23T06:02:23.662Z,10.30
2022-10-23T06:04:52.809Z,10.90
2022-10-23T06:07:29.161Z,10.60
2022-10-23T06:10:01.458Z,12.20
2022-10-23T06:12:31.019Z,12.40
2022-10-23T06:15:00.154Z,11.70
2022-10-23T06:17:30.501Z,12.10
2022-10-23T06:20:03.676Z,10.70
2022-10-23T06:22:33.043Z,9.80
2022-10-23T06:25:02.030Z,11.20
2022-10-23T06:27:31.314Z,10.90
2022-10-23T06:30:00.463Z,11.60
2022-10-23T06:32:33.802Z,13.50
2022-10-23T06:35:02.945Z,12.90
2022-10-23T06:37:35.625Z,10.40
2022-10-23T06:40:05.334Z,8.90
2022-10-23T06:42:34.689Z,9.20
2022-10-23T06:45:06.445Z,10.40
2022-10-23T06:47:36.483Z,9.40
2022-10-23T06:50:06.210Z,9.90
2022-10-23T06:52:46.420Z,9.20
2022-10-23T06:55:17.373Z,9.80
2022-10-23T06:57:47.591Z,9.60
2022-10-23T07:00:16.912Z,10.30
2022-10-23T07:02:46.292Z,9.50
2022-10-23T07:05:15.646Z,10.70
2022-10-23T07:07:44.754Z,8.90
2022-10-23T07:12:50.186Z,8.00
2022-10-23T07:15:19.556Z,10.00
2022-10-23T07:17:48.731Z,8.40
2022-10-23T07:20:18.163Z,8.60
2022-10-23T07:22:56.954Z,9.20
2022-10-23T07:25:30.977Z,11.30
2022-10-23T07:28:00.732Z,7.80
2022-10-23T07:30:29.988Z,8.60
2022-10-23T07:32:59.051Z,8.10
2022-10-23T07:35:28.189Z,8.10
2022-10-23T07:37:57.713Z,7.90
2022-10-23T07:40:27.090Z,8.30
2022-10-23T07:42:56.197Z,7.70
2022-10-23T07:45:25.584Z,10.60
2022-10-23T07:47:54.741Z,8.80
2022-10-23T07:50:24.005Z,8.50
2022-10-23T07:52:53.226Z,8.50
2022-10-23T07:55:22.685Z,7.70
2022-10-23T07:57:51.958Z,8.40
2022-10-23T08:00:21.509Z,8.00
2022-10-23T08:02:50.846Z,7.90
2022-10-23T08:05:22.493Z,8.40
2022-10-23T08:07:51.690Z,8.50
2022-10-23T08:10:21.070Z,9.20
2022-10-23T08:12:50.315Z,8.80
2022-10-23T08:15:19.711Z,9.60
2022-10-23T08:17:48.857Z,8.00
2022-10-23T08:20:18.363Z,8.30
2022-10-23T08:22:47.522Z,10.10
2022-10-23T08:25:17.232Z,8.70
2022-10-23T08:27:52.139Z,9.60
2022-10-23T08:30:21.911Z,7.80
2022-10-23T08:32:51.380Z,7.90
2022-10-23T08:35:21.110Z,8.60
2022-10-23T08:37:50.441Z,7.90
2022-10-23T08:40:24.989Z,7.20
2022-10-23T08:43:34.057Z,7.60
2022-10-23T08:46:12.620Z,9.40
2022-10-23T08:48:51.038Z,10.00
2022-10-23T08:51:43.048Z,10.60
2022-10-23T08:54:44.833Z,8.60
2022-10-23T08:57:18.969Z,8.20
2022-10-23T08:59:51.522Z,10.10
2022-10-23T09:02:40.485Z,8.20
2022-10-23T09:05:26.646Z,8.50
2022-10-23T09:08:44.852Z,7.30
2022-10-23T09:11:55.744Z,7.20
2022-10-23T09:14:57.530Z,7.60
2022-10-23T09:17:40.338Z,9.90
2022-10-23T09:20:21.720Z,8.90
2022-10-23T09:23:23.565Z,9.00
2022-10-23T09:25:58.356Z,9.10
2022-10-23T09:28:37.822Z,9.30
2022-10-23T09:31:15.885Z,8.00
2022-10-23T09:34:00.870Z,8.00
2022-10-23T09:36:31.712Z,10.50
2022-10-23T09:39:02.624Z,10.30
2022-10-23T09:41:44.851Z,8.90
2022-10-23T09:44:35.382Z,8.40
2022-10-23T09:47:13.081Z,8.70
2022-10-23T09:49:50.101Z,7.70
2022-10-23T09:52:19.442Z,8.40
2022-10-23T09:54:59.686Z,7.80
2022-10-23T09:57:41.973Z,7.50
2022-10-23T10:00:28.803Z,10.40
2022-10-23T10:03:28.979Z,9.50
2022-10-23T10:06:05.880Z,7.50
2022-10-23T10:08:56.822Z,9.40
2022-10-23T10:12:22.355Z,9.90
2022-10-23T10:15:36.491Z,8.50
2022-10-23T10:18:17.448Z,9.00
2022-10-23T10:21:04.793Z,8.90
2022-10-23T10:23:46.521Z,9.40
2022-10-23T10:27:11.961Z,8.40
2022-10-23T10:30:05.938Z,9.60
2022-10-23T10:33:11.017Z,7.60
2022-10-23T10:35:55.038Z,9.50
2022-10-23T10:39:01.268Z,9.10
2022-10-23T10:41:48.337Z,10.40
2022-10-23T10:45:02.891Z,8.80
2022-10-23T10:48:23.065Z,8.30
2022-10-23T10:51:08.227Z,7.90
2022-10-23T10:54:17.335Z,10.00
2022-10-23T10:56:49.922Z,11.40
2022-10-23T10:59:44.285Z,10.00
2022-10-23T11:02:35.235Z,8.70
2022-10-23T11:05:24.915Z,9.40
2022-10-23T11:08:22.732Z,9.10
2022-10-23T11:10:59.673Z,8.60
2022-10-23T11:13:41.568Z,8.50
2022-10-23T11:16:31.363Z,8.60
2022-10-23T11:19:31.597Z,10.20
2022-10-23T11:22:12.369Z,9.50
2022-10-23T11:25:06.550Z,12.90
2022-10-23T11:28:10.744Z,9.70
2022-10-23T11:30:56.094Z,9.70
2022-10-23T11:33:49.016Z,9.40
2022-10-23T11:36:55.828Z,10.50
2022-10-23T11:39:37.944Z,9.70
2022-10-23T11:42:07.265Z,7.60
2022-10-23T11:44:52.471Z,8.40
2022-10-23T11:47:38.849Z,7.70
2022-10-23T11:50:14.539Z,8.60
2022-10-23T11:53:16.354Z,8.70
2022-10-23T11:56:11.342Z,9.20
2022-10-23T11:59:19.712Z,11.60
2022-10-23T12:01:52.703Z,9.10
2022-10-23T12:04:36.671Z,8.20
2022-10-23T12:07:24.349Z,9.20
2022-10-23T12:10:02.521Z,9.50
2022-10-23T12:12:44.320Z,9.20
2022-10-23T12:15:22.228Z,7.90
2022-10-23T12:17:55.844Z,8.50
2022-10-23T12:20:48.487Z,7.70
2022-10-23T12:23:53.445Z,8.30
2022-10-23T12:26:38.904Z,8.20
2022-10-23T12:30:04.626Z,8.70
2022-10-23T12:32:55.363Z,8.40
2022-10-23T12:36:06.727Z,8.60
2022-10-23T12:38:41.306Z,9.60
2022-10-23T12:41:19.123Z,9.60
2022-10-23T12:44:00.857Z,9.90
2022-10-23T12:46:43.400Z,11.80
2022-10-23T12:49:25.885Z,11.80
2022-10-23T12:52:02.266Z,9.80
2022-10-23T12:54:41.809Z,11.70
2022-10-23T12:57:43.871Z,8.30
2022-10-23T13:00:20.921Z,10.70
2022-10-23T13:03:05.070Z,9.70
2022-10-23T13:05:34.911Z,9.40
2022-10-23T13:08:06.541Z,10.10
2022-10-23T13:10:36.019Z,10.00
2022-10-23T13:13:08.911Z,11.30
2022-10-23T13:15:46.841Z,11.70
2022-10-23T13:18:18.045Z,11.60
2022-10-23T13:20:58.700Z,10.60
2022-10-23T13:23:38.015Z,10.20
2022-10-23T13:26:29.998Z,10.80
2022-10-23T13:29:00.168Z,11.70
2022-10-23T13:31:35.330Z,10.30
2022-10-23T13:34:06.309Z,11.10
2022-10-23T13:36:40.841Z,10.20
2022-10-23T13:39:13.465Z,9.90
2022-10-23T13:41:48.573Z,9.80
2022-10-23T13:44:21.884Z,10.40
2022-10-23T13:46:53.100Z,9.30
2022-10-23T13:49:22.536Z,9.50
2022-10-23T13:51:55.636Z,10.00
2022-10-23T13:57:02.741Z,10.70
2022-10-23T13:59:32.021Z,12.00
2022-10-23T14:02:01.971Z,8.60
2022-10-23T14:04:31.278Z,8.80
2022-10-23T14:07:00.825Z,10.00
2022-10-23T14:09:30.168Z,13.30
2022-10-23T14:11:59.574Z,12.70
2022-10-23T14:14:28.920Z,13.40
2022-10-23T14:16:58.009Z,10.60
2022-10-23T14:19:27.348Z,10.60
2022-10-23T14:21:56.604Z,10.90
2022-10-23T14:24:25.916Z,11.30
2022-10-23T14:26:55.026Z,12.30
2022-10-23T14:29:24.629Z,11.50
2022-10-23T14:31:54.074Z,11.60
2022-10-23T14:34:23.394Z,9.00
2022-10-23T14:37:07.410Z,12.10
2022-10-23T14:39:38.383Z,12.80
2022-10-23T14:42:07.766Z,12.10
2022-10-23T14:44:39.920Z,14.70
2022-10-23T14:47:09.359Z,14.10
2022-10-23T14:49:41.033Z,10.60
2022-10-23T14:52:10.857Z,11.40
2022-10-23T14:54:39.955Z,9.50
2022-10-23T14:57:09.001Z,8.40
2022-10-23T14:59:38.302Z,9.20
2022-10-23T15:02:07.631Z,10.20
2022-10-23T15:04:37.028Z,9.10
2022-10-23T15:07:06.782Z,10.30
2022-10-23T15:09:37.728Z,9.90
2022-10-23T15:12:08.558Z,9.60
2022-10-23T15:14:37.784Z,8.80
2022-10-23T15:17:06.888Z,10.40
2022-10-23T15:19:36.192Z,9.10
2022-10-23T15:22:05.659Z,9.30
2022-10-23T15:24:35.243Z,10.40
2022-10-23T15:27:04.932Z,10.50
2022-10-23T15:29:34.599Z,9.00
2022-10-23T15:32:06.762Z,8.90
2022-10-23T15:34:36.315Z,8.20
2022-10-23T15:37:06.431Z,8.40
2022-10-23T15:39:36.562Z,10.00
2022-10-23T15:42:08.343Z,8.50
2022-10-23T15:44:37.805Z,8.80
2022-10-23T15:47:07.676Z,8.50
2022-10-23T15:49:38.246Z,9.90
2022-10-23T15:54:39.971Z,10.80
2022-10-23T15:57:09.262Z,10.90
2022-10-23T15:59:38.445Z,12.50
2022-10-23T16:02:07.969Z,11.30
2022-10-23T16:04:37.956Z,10.10
2022-10-23T16:07:08.467Z,9.90
2022-10-23T16:09:38.676Z,9.20
2022-10-23T16:12:08.343Z,9.90
2022-10-23T16:14:37.517Z,8.60
2022-10-23T16:17:08.581Z,9.70
2022-10-23T16:19:38.060Z,9.60
2022-10-23T16:22:07.840Z,9.10
2022-10-23T16:24:37.372Z,9.50
2022-10-23T16:27:07.222Z,10.60
2022-10-23T16:29:36.513Z,10.30
2022-10-23T16:32:05.822Z,12.20
2022-10-23T16:34:34.917Z,8.60
2022-10-23T16:37:04.218Z,9.30
2022-10-23T16:39:33.544Z,9.40
2022-10-23T16:42:03.177Z,7.90
2022-10-23T16:44:32.426Z,10.90
2022-10-23T16:47:01.572Z,9.10
2022-10-23T16:49:32.210Z,11.00
2022-10-23T16:52:01.398Z,11.30
2022-10-23T16:54:30.647Z,10.90
2022-10-23T16:56:59.877Z,9.70
2022-10-23T16:59:29.079Z,11.20
2022-10-23T17:01:58.539Z,14.60
2022-10-23T17:04:27.882Z,10.80
2022-10-23T17:06:57.409Z,8.80
2022-10-23T17:09:28.729Z,13.30
2022-10-23T17:11:58.451Z,11.40
2022-10-23T17:14:31.562Z,10.30
2022-10-23T17:17:03.472Z,10.80
2022-10-23T17:19:44.231Z,9.00
2022-10-23T17:22:15.690Z,8.80
2022-10-23T17:24:48.761Z,9.30
2022-10-23T17:27:21.250Z,9.30
2022-10-23T17:29:50.599Z,9.20
2022-10-23T17:32:22.869Z,9.80
2022-10-23T17:34:52.414Z,9.10
2022-10-23T17:37:21.667Z,8.80
2022-10-23T17:39:51.342Z,9.00
2022-10-23T17:42:21.372Z,10.40
2022-10-23T17:44:50.975Z,9.90
2022-10-23T17:47:20.463Z,10.70
2022-10-23T17:49:49.661Z,9.90
2022-10-23T17:52:18.914Z,12.10
2022-10-23T17:54:52.152Z,10.70
2022-10-23T17:59:55.479Z,10.30
2022-10-23T18:02:24.910Z,10.80
2022-10-23T18:04:55.086Z,12.40
2022-10-23T18:07:26.755Z,9.20
2022-10-23T18:09:57.232Z,9.90
2022-10-23T18:12:27.204Z,8.40
2022-10-23T18:14:57.384Z,9.50
2022-10-23T18:17:26.427Z,10.10
2022-10-23T18:19:59.566Z,10.30
2022-10-23T18:22:31.349Z,11.90
2022-10-23T18:25:01.463Z,11.30
2022-10-23T18:27:30.745Z,11.60
2022-10-23T18:30:00.188Z,11.00
2022-10-23T18:32:31.069Z,10.90
2022-10-23T18:35:00.502Z,10.00
2022-10-23T18:37:31.832Z,11.10
2022-10-23T18:40:02.150Z,10.30
2022-10-23T18:42:31.282Z,10.00
2022-10-23T18:45:00.543Z,10.50
2022-10-23T18:47:29.723Z,10.40
2022-10-23T18:49:59.680Z,10.60
2022-10-23T18:52:28.625Z,11.70
2022-10-23T18:54:57.871Z,7.40
2022-10-23T18:57:27.325Z,7.70
2022-10-23T18:59:59.195Z,8.70
2022-10-23T19:02:29.042Z,9.60
2022-10-23T19:04:58.441Z,8.70
2022-10-23T19:07:28.511Z,9.20
2022-10-23T19:09:58.266Z,9.20
2022-10-23T19:12:27.542Z,9.10
2022-10-23T19:14:56.846Z,9.10
2022-10-23T19:17:41.316Z,8.30
2022-10-23T19:20:19.284Z,8.30
2022-10-23T19:22:53.679Z,7.10
2022-10-23T19:25:32.628Z,7.70
2022-10-23T19:28:04.151Z,7.30
2022-10-23T19:30:34.178Z,8.90
2022-10-23T19:33:03.795Z,7.50
2022-10-23T19:35:33.223Z,7.70
2022-10-23T19:38:02.695Z,7.80
2022-10-23T19:40:31.908Z,9.60
2022-10-23T19:43:02.329Z,8.60
2022-10-23T19:48:00.842Z,8.60
2022-10-23T19:50:29.708Z,8.70
2022-10-23T19:52:59.438Z,8.50
2022-10-23T19:55:28.559Z,8.80
2022-10-23T19:57:57.565Z,9.60
2022-10-23T20:00:26.963Z,10.60
2022-10-23T20:02:56.934Z,10.00
2022-10-23T20:05:25.927Z,8.80
2022-10-23T20:07:55.044Z,8.30
2022-10-23T20:10:24.556Z,11.30
2022-10-23T20:12:56.899Z,11.30
2022-10-23T20:15:31.555Z,9.30
2022-10-23T20:18:00.965Z,8.70
2022-10-23T20:20:30.121Z,9.20
2022-10-23T20:23:00.130Z,9.60
2022-10-23T20:25:29.417Z,8.30
2022-10-23T20:27:58.435Z,11.60
2022-10-23T20:30:27.498Z,8.90
2022-10-23T20:32:56.722Z,9.80
2022-10-23T20:35:26.068Z,9.90
2022-10-23T20:37:55.451Z,9.30
2022-10-23T20:40:24.437Z,8.00
2022-10-23T20:42:53.467Z,8.50
2022-10-23T20:45:22.519Z,9.10
2022-10-23T20:47:51.606Z,8.30
2022-10-23T20:50:21.887Z,10.40
2022-10-23T20:52:51.453Z,9.10
2022-10-23T20:55:20.818Z,10.60
2022-10-23T20:57:50.113Z,12.70
2022-10-23T21:00:19.440Z,8.10
2022-10-23T21:02:51.344Z,9.10
2022-10-23T21:05:22.329Z,9.30
2022-10-23T21:07:51.381Z,8.50
2022-10-23T21:10:20.749Z,9.00
2022-10-23T21:12:49.631Z,10.20
2022-10-23T21:15:19.188Z,9.30
2022-10-23T21:17:50.914Z,7.60
2022-10-23T21:20:19.897Z,8.80
2022-10-23T21:22:49.254Z,9.50
2022-10-23T21:25:18.375Z,9.60
2022-10-23T21:27:47.729Z,8.70
2022-10-23T21:30:17.002Z,8.50
2022-10-23T21:32:46.161Z,9.20
2022-10-23T21:35:15.239Z,9.00
2022-10-23T21:37:44.604Z,8.90
2022-10-23T21:40:14.179Z,10.60
2022-10-23T21:42:44.091Z,8.50
2022-10-23T21:45:13.281Z,9.80
2022-10-23T21:47:42.601Z,10.50
2022-10-23T21:50:12.850Z,8.30
2022-10-23T21:52:42.804Z,8.60
2022-10-23T21:55:12.308Z,8.40
2022-10-23T21:57:41.348Z,8.30
2022-10-23T22:00:11.326Z,8.20
2022-10-23T22:02:40.962Z,8.10
2022-10-23T22:05:10.328Z,7.50
2022-10-23T22:07:39.443Z,8.70
2022-10-23T22:10:09.230Z,8.70
2022-10-23T22:12:38.171Z,7.50
2022-10-23T22:15:13.469Z,8.10
2022-10-23T22:17:42.755Z,7.20
2022-10-23T22:20:12.505Z,6.80
2022-10-23T22:22:41.868Z,8.80
2022-10-23T22:25:11.474Z,6.70
2022-10-23T22:27:40.651Z,8.30
2022-10-23T22:30:10.035Z,7.40
2022-10-23T22:32:39.119Z,7.80
2022-10-23T22:35:08.889Z,6.70
2022-10-23T22:37:37.999Z,9.10
2022-10-23T22:40:09.506Z,6.50
2022-10-23T22:42:39.855Z,6.50
2022-10-23T22:45:09.870Z,6.60
2022-10-23T22:47:39.028Z,6.00
2022-10-23T22:50:09.196Z,5.80
2022-10-23T22:52:38.250Z,6.90
2022-10-23T22:55:08.446Z,7.10
2022-10-23T22:57:37.667Z,5.40
2022-10-23T23:00:08.500Z,5.70
2022-10-23T23:02:37.632Z,6.00
2022-10-23T23:05:07.679Z,6.70
2022-10-23T23:07:36.576Z,5.70
2022-10-23T23:10:06.128Z,7.50
2022-10-23T23:12:37.953Z,6.70
2022-10-23T23:15:07.508Z,6.20
2022-10-23T23:17:36.436Z,6.00
2022-10-23T23:20:06.379Z,6.40
2022-10-23T23:22:35.437Z,7.90
2022-10-23T23:25:05.145Z,6.20
2022-10-23T23:27:34.050Z,6.70
2022-10-23T23:30:03.614Z,6.30
2022-10-23T23:32:32.912Z,8.90
2022-10-23T23:35:03.798Z,6.80
2022-10-23T23:37:32.785Z,6.50
2022-10-23T23:40:01.814Z,7.50
2022-10-23T23:42:32.410Z,7.80
2022-10-23T23:45:10.250Z,7.30
2022-10-23T23:47:46.504Z,9.50
2022-10-23T23:50:15.989Z,7.30
2022-10-23T23:52:45.043Z,6.50
2022-10-23T23:55:14.442Z,6.60
2022-10-23T23:57:43.636Z,7.70
